Alvaton, KY (42122)

8:09 AM CST on February 12, 2016 (GMT -0600)
Plano | | Change Station
CLOSE
Current Station
Personal Weather Station
Location: Bowling Green, KY
Elevation: 630 ft
Nearby Weather Stations

Elev 630 ft 36.87 °N, 86.41 °W | Updated 9 seconds ago

Snow
Snow
27.5 °F
Feels Like 28 °F
N
1.0
Wind Variable Wind from East
Gusts 2.0 mph

Today
High -- | Low -- °F
--% Chance of Precip.
Yesterday
High -- | Low -- °F
Precip. -- in
Pressure 30.21 in
Visibility 3.0 miles
Clouds Few 500 ft
Mostly Cloudy 3900 ft
Overcast 5500 ft
Windchill 28 °F
Dew Point 28 °F
Humidity 100%
Rainfall 0.00 in
Snow Depth Not available.
6:37 AM 5:22 PM
Waxing Crescent, 21% visible
SPECI KBWG 121403Z AUTO 00000KT 3SM -SN BR FEW005 BKN039 OVC055 M02/M03 A3021 RMK AO2 P0000 T10221033
Pressure 30.21 in
Visibility 3.0 miles
Clouds Few 500 ft
Mostly Cloudy 3900 ft
Overcast 5500 ft
Windchill 28 °F
Dew Point 28 °F
Humidity 100%
Rainfall 0.00 in
Snow Depth Not available.
6:37 AM 5:22 PM
Waxing Crescent, 21% visible
SPECI KBWG 121403Z AUTO 00000KT 3SM -SN BR FEW005 BKN039 OVC055 M02/M03 A3021 RMK AO2 P0000 T10221033

10-Day Weather Forecast

Almanac

Astronomy

Feb. 12, 2016 Rise Set
Actual Time
Civil Twilight
Nautical Twilight
Astronomical Twilight
Moon
Length of Visible Light
Length of Day
Tomorrow will be .
, % of the Moon is Illuminated

Today's Extremes

State Highs State Lows

Community

WunderPhotos

Upload Photos

1,892,313 photos uploaded!

WunderBlog® & News

Nearby

Air Quality

  Air Quality AQ Index Pollutant
Not available.

Snow Depth

Station Depth Elevation

Earthquake Activity

City Distance Mag. Time & Date
Minimum magnitude displayed is 2.5.

Coastal Water Temperatures

Place Temperature

Stations

Nearby Weather Stations

Station Location Temp. Windchill Dew Point Humidity Wind Precip. Elev Updated Type
                   

Watches & Warnings

Winter Weather Advisory
Issued: 3:00 AM CST Feb. 12, 2016 – National Weather Service

... Winter Weather Advisory remains in effect until 11 am EST
/10 am CST/ this morning...

* timing... early this morning until midday.

* Main impact... snow accumulations of up to 1 inch will create
slick spots for the morning commute.

Precautionary/preparedness actions...

Research shows that more traffic accidents occur with an inch or
less of snow... before drivers realize that traction is reduced.
Don't become a statistic... slow down and leave extra distance
between vehicles.